Time;durP1;ratioP1;P1;durP2;ratioP2;P2;SDS_P1;SDS_P2;PMS_P1;PMS_P2;Temp;Humidity;BMP_temperature;BMP_pressure;BME280_temperature;BME280_humidity;BME280_pressure;Samples;Min_cycle;Max_cycle;Signal;HPM_P1;HPM_P2
2023/12/02 00:00:44;;;;;;;27.10;12.90;;;;;;;16.05;32.76;99700.88;109233;1254;64405;-60
2023/12/02 00:03:12;;;;;;;23.30;12.20;;;;;;;16.04;32.80;99709.94;109313;1253;61376;-57
2023/12/02 00:05:39;;;;;;;23.50;11.10;;;;;;;16.08;32.74;99709.84;109353;1251;62420;-56
2023/12/02 00:08:07;;;;;;;27.10;10.40;;;;;;;16.14;32.64;99717.66;109356;1254;58536;-57
2023/12/02 00:10:35;;;;;;;24.40;12.70;;;;;;;16.24;32.58;99723.30;109263;1253;58455;-58
2023/12/02 00:13:02;;;;;;;22.70;9.90;;;;;;;16.37;32.40;99727.42;109286;1252;64941;-57
2023/12/02 00:15:30;;;;;;;23.10;9.70;;;;;;;16.46;32.26;99733.52;105873;1254;61948;-55
2023/12/02 00:17:57;;;;;;;30.80;14.50;;;;;;;16.52;32.22;99729.39;105366;1254;64461;-56
2023/12/02 00:20:26;;;;;;;31.40;15.70;;;;;;;16.59;32.41;99734.33;105314;1252;60530;-57
2023/12/02 00:22:53;;;;;;;25.30;13.00;;;;;;;16.64;32.42;99734.95;105280;1254;60311;-56
2023/12/02 00:25:21;;;;;;;39.00;17.90;;;;;;;16.65;32.14;99741.62;105142;1254;63902;-56
2023/12/02 00:27:49;;;;;;;31.40;15.90;;;;;;;16.65;32.14;99740.72;105379;1256;60286;-56
2023/12/02 00:30:17;;;;;;;30.10;14.80;;;;;;;16.64;32.10;99739.16;105251;1254;63792;-56
2023/12/02 00:32:45;;;;;;;31.80;16.90;;;;;;;16.64;32.00;99738.84;105322;1254;60447;-55
2023/12/02 00:35:13;;;;;;;34.30;15.10;;;;;;;16.60;31.90;99736.14;106905;1255;59343;-58
2023/12/02 00:37:41;;;;;;;31.70;16.50;;;;;;;16.55;31.89;99738.02;105395;1257;65075;-57
2023/12/02 00:40:10;;;;;;;34.70;16.40;;;;;;;16.52;31.99;99742.71;105450;1254;61385;-56
2023/12/02 00:42:37;;;;;;;27.30;12.50;;;;;;;16.51;32.00;99747.93;106414;1257;73994;-55
2023/12/02 00:45:05;;;;;;;31.20;14.60;;;;;;;16.49;31.81;99746.62;105380;1254;60581;-58
2023/12/02 00:47:33;;;;;;;33.00;15.60;;;;;;;16.45;31.74;99744.59;108959;1254;58366;-59
2023/12/02 00:50:01;;;;;;;30.40;16.00;;;;;;;16.34;31.83;99738.05;105510;1254;63695;-58
2023/12/02 00:52:29;;;;;;;30.50;16.80;;;;;;;16.18;32.10;99728.38;105520;1256;60511;-58
2023/12/02 00:54:56;;;;;;;28.00;15.00;;;;;;;16.12;32.15;99726.62;106819;1254;63766;-58
2023/12/02 00:57:24;;;;;;;27.20;11.00;;;;;;;16.12;32.20;99728.21;105198;1257;60870;-58
2023/12/02 00:59:52;;;;;;;23.60;10.20;;;;;;;16.19;32.18;99731.79;105331;1257;60774;-59
2023/12/02 01:02:20;;;;;;;24.60;8.70;;;;;;;16.27;32.20;99728.41;105328;1254;63705;-58
2023/12/02 01:04:48;;;;;;;22.20;9.80;;;;;;;16.35;32.27;99723.95;105304;1256;60558;-59
2023/12/02 01:07:16;;;;;;;25.20;12.40;;;;;;;16.42;32.23;99726.48;105279;1254;62540;-56
2023/12/02 01:09:43;;;;;;;26.20;12.40;;;;;;;16.52;32.26;99730.86;105378;1254;60994;-57
2023/12/02 01:12:11;;;;;;;27.30;13.50;;;;;;;16.63;31.94;99732.43;105336;1256;60433;-58
2023/12/02 01:14:39;;;;;;;31.60;16.60;;;;;;;16.64;32.04;99724.56;105241;1252;63671;-58
2023/12/02 01:17:06;;;;;;;34.70;17.10;;;;;;;16.64;31.74;99724.30;105568;1254;62006;-56
2023/12/02 01:19:34;;;;;;;29.30;14.10;;;;;;;16.61;31.62;99730.20;105139;1256;62482;-58
2023/12/02 01:22:02;;;;;;;28.60;13.30;;;;;;;16.55;31.66;99731.80;105557;1254;60554;-58
2023/12/02 01:24:30;;;;;;;30.50;14.90;;;;;;;16.45;31.74;99736.59;105310;1253;60466;-60
2023/12/02 01:26:57;;;;;;;26.10;13.30;;;;;;;16.39;31.77;99735.70;105200;1257;64891;-57
2023/12/02 01:29:25;;;;;;;27.20;12.10;;;;;;;16.35;31.82;99731.02;105222;1257;60325;-58
2023/12/02 01:31:53;;;;;;;28.10;12.60;;;;;;;16.30;31.88;99730.52;105227;1254;63794;-59
2023/12/02 01:34:20;;;;;;;27.20;13.10;;;;;;;16.26;32.10;99733.20;105317;1257;60585;-57
2023/12/02 01:36:48;;;;;;;29.20;14.40;;;;;;;16.24;32.08;99727.51;106122;1256;61539;-57
2023/12/02 01:39:16;;;;;;;29.50;14.70;;;;;;;16.18;32.14;99717.26;105233;1255;63697;-57
2023/12/02 01:41:43;;;;;;;27.30;15.30;;;;;;;16.08;32.20;99715.03;105341;1253;61384;-57
2023/12/02 01:44:11;;;;;;;21.70;11.90;;;;;;;15.98;32.29;99709.77;105421;1254;63775;-58
2023/12/02 01:46:39;;;;;;;22.30;11.30;;;;;;;15.98;32.44;99710.67;105487;1260;60647;-58
2023/12/02 01:49:07;;;;;;;22.10;9.60;;;;;;;16.06;32.46;99720.00;105274;1257;60447;-57
2023/12/02 01:51:36;;;;;;;16.20;7.50;;;;;;;16.17;32.50;99725.65;105286;1251;63702;-58
2023/12/02 01:54:03;;;;;;;25.60;11.70;;;;;;;16.26;32.22;99725.66;105625;1255;61854;-57
2023/12/02 01:56:31;;;;;;;21.90;9.10;;;;;;;16.35;32.27;99730.16;105416;1257;64122;-57
2023/12/02 01:58:59;;;;;;;17.20;9.10;;;;;;;16.44;32.23;99722.76;105366;1257;60624;-57
2023/12/02 02:01:29;;;;;;;18.10;10.80;;;;;;;16.51;32.25;99720.84;105217;1259;60398;-60
2023/12/02 02:03:59;;;;;;;27.60;13.20;;;;;;;16.57;32.19;99724.48;105412;1256;65180;-58
2023/12/02 02:06:27;;;;;;;23.70;11.30;;;;;;;16.58;31.99;99722.79;105989;1256;60570;-60
2023/12/02 02:08:56;;;;;;;19.10;9.70;;;;;;;16.53;32.03;99720.70;105852;1254;63729;-60
2023/12/02 02:11:24;;;;;;;25.90;11.50;;;;;;;16.45;31.84;99722.61;107800;1254;60466;-59
2023/12/02 02:13:52;;;;;;;27.70;11.10;;;;;;;16.37;31.92;99729.95;106242;1256;60426;-58
2023/12/02 02:16:20;;;;;;;20.90;8.90;;;;;;;16.31;32.07;99725.71;105502;1254;63804;-57
2023/12/02 02:18:47;;;;;;;32.10;14.50;;;;;;;16.24;32.09;99722.40;105409;1256;60393;-58
2023/12/02 02:21:16;;;;;;;33.80;12.40;;;;;;;16.16;32.31;99721.85;105370;1256;62618;-58
2023/12/02 02:23:44;;;;;;;34.00;13.50;;;;;;;16.09;32.24;99718.20;105337;1251;60523;-57
2023/12/02 02:26:12;;;;;;;25.00;11.90;;;;;;;15.99;32.43;99724.47;105364;1254;60539;-58
2023/12/02 02:28:39;;;;;;;35.50;14.10;;;;;;;15.95;32.57;99721.63;105135;1259;64939;-59
2023/12/02 02:31:07;;;;;;;24.50;11.10;;;;;;;15.88;32.53;99725.38;105074;1258;64167;-59
2023/12/02 02:33:35;;;;;;;16.00;7.60;;;;;;;15.90;32.77;99731.00;105177;1259;62493;-58
2023/12/02 02:36:03;;;;;;;21.90;8.70;;;;;;;16.00;32.64;99726.71;105229;1260;60440;-56
2023/12/02 02:38:30;;;;;;;28.60;9.70;;;;;;;16.05;32.66;99723.48;106552;1259;60364;-60
2023/12/02 02:40:58;;;;;;;29.70;10.10;;;;;;;16.10;32.74;99722.75;105700;1258;64943;-61
2023/12/02 02:43:26;;;;;;;20.70;9.30;;;;;;;16.21;32.70;99720.74;105868;1258;62012;-61
2023/12/02 02:45:53;;;;;;;29.10;12.60;;;;;;;16.28;32.65;99713.20;105963;1259;62453;-58
2023/12/02 02:48:21;;;;;;;25.30;11.70;;;;;;;16.30;32.53;99712.50;105235;1263;60639;-58
2023/12/02 02:50:49;;;;;;;23.90;12.00;;;;;;;16.30;32.47;99714.78;106030;1258;60374;-59
2023/12/02 02:53:17;;;;;;;20.40;10.20;;;;;;;16.29;32.55;99721.14;105204;1259;63740;-58
2023/12/02 02:55:45;;;;;;;35.60;12.40;;;;;;;16.27;32.50;99727.95;105391;1258;61488;-57
2023/12/02 02:58:13;;;;;;;26.60;12.20;;;;;;;16.23;32.52;99729.57;105317;1258;63898;-57
2023/12/02 03:00:41;;;;;;;22.40;9.90;;;;;;;16.20;32.67;99732.05;105240;1260;60612;-56
2023/12/02 03:03:08;;;;;;;25.90;11.30;;;;;;;16.12;32.62;99729.73;105382;1260;60585;-59
2023/12/02 03:05:36;;;;;;;24.30;11.80;;;;;;;16.04;32.61;99729.98;105286;1254;63728;-58
2023/12/02 03:08:04;;;;;;;22.80;10.70;;;;;;;15.96;32.63;99730.02;105462;1254;60524;-58
2023/12/02 03:10:33;;;;;;;25.40;10.40;;;;;;;15.94;32.85;99735.40;105772;1255;63711;-58
2023/12/02 03:13:02;;;;;;;27.40;12.50;;;;;;;15.96;32.94;99733.70;105681;1255;60407;-58
2023/12/02 03:15:29;;;;;;;29.80;11.50;;;;;;;15.95;32.97;99739.29;105232;1258;60623;-60
2023/12/02 03:17:57;;;;;;;27.10;10.60;;;;;;;15.93;32.87;99738.27;105205;1255;63783;-58
2023/12/02 03:20:25;;;;;;;28.70;12.40;;;;;;;15.98;32.92;99735.65;105216;1260;60551;-58
2023/12/02 03:22:53;;;;;;;20.40;9.20;;;;;;;16.04;33.02;99727.93;105384;1257;64418;-59
2023/12/02 03:25:20;;;;;;;24.30;10.60;;;;;;;16.11;32.81;99731.98;105156;1268;60528;-57
2023/12/02 03:27:48;;;;;;;19.10;7.10;;;;;;;16.20;32.84;99735.22;105222;1259;59405;-58
2023/12/02 03:30:15;;;;;;;22.50;9.80;;;;;;;16.27;32.78;99741.81;105236;1261;65448;-59
2023/12/02 03:32:43;;;;;;;19.50;7.60;;;;;;;16.35;32.66;99745.39;105236;1260;61590;-59
2023/12/02 03:35:11;;;;;;;24.20;13.50;;;;;;;16.36;32.75;99740.20;105500;1257;64506;-59
2023/12/02 03:37:39;;;;;;;23.90;11.40;;;;;;;16.32;32.80;99737.77;105382;1259;60536;-60
2023/12/02 03:40:08;;;;;;;25.40;10.30;;;;;;;16.32;32.66;99738.23;105235;1264;60639;-60
2023/12/02 03:42:36;;;;;;;30.40;12.90;;;;;;;16.31;32.61;99739.11;105377;1258;64999;-57
2023/12/02 03:45:06;;;;;;;30.10;11.40;;;;;;;16.26;32.50;99735.06;105233;1259;71574;-59
2023/12/02 03:47:34;;;;;;;27.80;9.20;;;;;;;16.21;32.50;99736.75;105715;1260;62431;-58
2023/12/02 03:50:02;;;;;;;29.20;10.90;;;;;;;16.15;32.51;99742.48;105118;1260;60562;-59
2023/12/02 03:52:30;;;;;;;23.00;10.80;;;;;;;16.16;32.48;99749.31;105212;1260;60443;-60
2023/12/02 03:54:58;;;;;;;24.70;9.40;;;;;;;16.09;32.61;99757.52;105771;1254;64927;-60
2023/12/02 03:57:25;;;;;;;27.90;12.60;;;;;;;16.02;32.54;99756.10;105244;1261;61388;-61
2023/12/02 03:59:53;;;;;;;21.70;9.40;;;;;;;15.97;32.55;99752.87;105901;1258;62483;-58
2023/12/02 04:02:20;;;;;;;20.40;8.80;;;;;;;15.95;32.55;99753.27;105183;1260;60440;-57
2023/12/02 04:04:48;;;;;;;20.50;7.50;;;;;;;16.01;32.60;99752.62;105331;1257;60428;-58
2023/12/02 04:07:16;;;;;;;19.50;9.20;;;;;;;16.11;32.55;99751.14;105295;1254;63670;-59
2023/12/02 04:09:44;;;;;;;34.00;12.30;;;;;;;16.22;32.49;99744.36;105457;1259;60357;-58
2023/12/02 04:12:12;;;;;;;26.00;10.50;;;;;;;16.31;32.42;99742.69;105885;1255;62522;-58
2023/12/02 04:14:40;;;;;;;21.60;9.50;;;;;;;16.28;32.41;99746.23;105168;1258;60843;-58
2023/12/02 04:17:08;;;;;;;24.20;11.80;;;;;;;16.25;32.39;99754.71;105540;1256;60539;-56
2023/12/02 04:19:35;;;;;;;30.00;11.90;;;;;;;16.24;32.54;99762.23;105321;1257;63639;-59
2023/12/02 04:22:03;;;;;;;31.00;14.10;;;;;;;16.21;32.52;99771.09;105121;1260;60428;-59
2023/12/02 04:24:31;;;;;;;22.50;11.90;;;;;;;16.16;32.54;99770.31;105230;1260;62506;-59
2023/12/02 04:26:58;;;;;;;27.40;12.70;;;;;;;16.12;32.50;99772.52;105758;1259;60492;-57
2023/12/02 04:29:26;;;;;;;25.60;11.60;;;;;;;16.10;32.56;99769.65;105247;1260;60348;-59
2023/12/02 04:31:54;;;;;;;24.50;11.30;;;;;;;16.09;32.57;99765.14;105097;1260;64902;-60
2023/12/02 04:34:21;;;;;;;23.80;10.30;;;;;;;16.03;32.56;99764.05;105181;1259;61878;-59
2023/12/02 04:36:50;;;;;;;30.00;10.90;;;;;;;15.99;32.62;99760.73;105270;1254;62464;-58
2023/12/02 04:39:17;;;;;;;28.00;11.30;;;;;;;15.96;32.75;99753.70;105303;1254;60457;-57
2023/12/02 04:41:45;;;;;;;25.90;12.60;;;;;;;15.90;32.81;99747.32;105095;1255;60535;-58
2023/12/02 04:44:12;;;;;;;30.70;11.90;;;;;;;15.86;32.81;99749.21;105231;1257;64994;-58
2023/12/02 04:46:43;;;;;;;18.20;7.60;;;;;;;15.90;32.89;99752.30;105177;1260;61378;-58
2023/12/02 04:49:11;;;;;;;20.90;9.80;;;;;;;15.97;32.72;99756.39;105115;1254;63747;-57
2023/12/02 04:51:39;;;;;;;25.60;9.60;;;;;;;16.04;32.71;99761.12;105266;1254;60457;-59
2023/12/02 04:54:07;;;;;;;20.90;7.80;;;;;;;16.11;32.72;99767.95;105219;1255;60447;-57
2023/12/02 04:56:35;;;;;;;17.00;5.50;;;;;;;16.17;32.62;99769.76;105180;1257;65404;-58
2023/12/02 04:59:03;;;;;;;16.90;7.00;;;;;;;16.23;32.50;99775.63;105320;1258;60495;-59
2023/12/02 05:01:30;;;;;;;24.20;9.30;;;;;;;16.26;32.39;99777.60;105677;1255;62764;-59
2023/12/02 05:03:58;;;;;;;20.60;9.10;;;;;;;16.22;32.20;99783.73;105173;1255;60562;-58
2023/12/02 05:06:26;;;;;;;24.90;10.50;;;;;;;16.20;32.43;99781.52;105274;1253;60461;-59
2023/12/02 05:08:55;;;;;;;24.60;9.00;;;;;;;16.25;32.39;99784.58;106781;1257;65433;-60
2023/12/02 05:11:23;;;;;;;19.00;8.90;;;;;;;16.22;32.27;99787.09;105300;1256;60376;-59
2023/12/02 05:13:50;;;;;;;20.70;9.20;;;;;;;16.14;32.37;99783.70;105147;1258;64286;-54
2023/12/02 05:16:18;;;;;;;20.70;9.30;;;;;;;16.06;32.40;99781.71;105195;1259;60389;-59
2023/12/02 05:18:46;;;;;;;22.60;7.70;;;;;;;16.01;32.39;99787.61;105263;1260;60769;-61
2023/12/02 05:21:15;;;;;;;18.50;7.30;;;;;;;15.96;32.48;99789.22;105215;1258;63701;-59
2023/12/02 05:23:43;;;;;;;22.50;9.10;;;;;;;15.90;32.45;99792.70;105256;1258;60481;-60
2023/12/02 05:26:11;;;;;;;17.20;6.90;;;;;;;15.87;32.51;99794.53;105138;1254;63734;-60
2023/12/02 05:28:38;;;;;;;19.20;7.40;;;;;;;15.83;32.66;99795.64;105230;1259;60461;-59
2023/12/02 05:31:07;;;;;;;18.90;8.50;;;;;;;15.78;32.74;99801.50;105195;1260;60536;-61
2023/12/02 05:33:34;;;;;;;17.10;8.10;;;;;;;15.72;32.74;99809.17;105557;1254;73830;-62
2023/12/02 05:36:03;;;;;;;15.60;6.80;;;;;;;15.74;32.81;99807.83;105551;1257;60590;-60
2023/12/02 05:38:31;;;;;;;13.90;7.20;;;;;;;15.83;32.64;99804.72;105379;1254;64157;-56
2023/12/02 05:40:58;;;;;;;19.00;5.30;;;;;;;15.91;32.53;99800.39;105671;1254;60414;-56
2023/12/02 05:43:26;;;;;;;14.50;4.10;;;;;;;15.99;32.45;99796.21;105259;1254;60370;-58
2023/12/02 05:45:54;;;;;;;14.00;4.70;;;;;;;16.05;32.34;99793.60;105790;1255;64834;-55
2023/12/02 05:48:22;;;;;;;15.50;6.00;;;;;;;16.13;32.35;99791.07;105112;1255;61600;-56
2023/12/02 05:50:50;;;;;;;13.00;6.70;;;;;;;16.18;32.36;99790.64;105889;1258;62495;-56
2023/12/02 05:53:18;;;;;;;15.30;7.10;;;;;;;16.20;32.17;99794.55;105251;1260;60495;-57
2023/12/02 05:55:46;;;;;;;14.40;5.30;;;;;;;16.14;32.24;99804.73;105064;1257;60454;-59
2023/12/02 05:58:14;;;;;;;18.50;8.40;;;;;;;16.15;32.21;99809.44;105055;1254;64904;-54
2023/12/02 06:00:41;;;;;;;12.40;6.20;;;;;;;16.17;31.98;99798.73;105049;1267;60215;-57
2023/12/02 06:03:09;;;;;;;17.80;7.20;;;;;;;16.18;31.93;99794.05;109067;1257;62554;-59
2023/12/02 06:05:36;;;;;;;15.80;7.90;;;;;;;16.16;32.07;99794.73;109163;1254;59025;-59
2023/12/02 06:08:04;;;;;;;19.00;9.20;;;;;;;16.12;32.00;99798.86;109063;1254;58711;-60
2023/12/02 06:10:32;;;;;;;17.30;6.90;;;;;;;16.04;31.95;99804.30;109082;1257;64969;-60
2023/12/02 06:13:00;;;;;;;19.60;8.70;;;;;;;15.97;32.01;99795.46;109058;1254;60130;-60
2023/12/02 06:15:27;;;;;;;20.00;7.30;;;;;;;15.98;32.03;99787.45;109092;1254;62481;-60
2023/12/02 06:17:56;;;;;;;21.20;7.90;;;;;;;15.96;32.13;99784.58;109141;1255;58426;-61
2023/12/02 06:20:27;;;;;;;18.50;9.00;;;;;;;15.93;32.20;99782.20;106646;1254;3425423;-59
2023/12/02 06:36:04;;;;;;;24.40;8.60;;;;;;;14.31;35.49;99802.63;103770;1281;609164;-65
2023/12/02 06:38:32;;;;;;;15.30;7.30;;;;;;;16.56;31.49;99801.05;102726;1264;3539199;-61
2023/12/02 06:40:59;;;;;;;17.30;7.30;;;;;;;16.53;31.54;99795.33;105263;1266;59246;-67
2023/12/02 06:43:26;;;;;;;20.80;8.50;;;;;;;16.48;31.50;99799.14;105481;1266;59260;-62
2023/12/02 06:45:55;;;;;;;30.60;9.70;;;;;;;16.39;31.45;99802.27;106078;1270;59307;-58
2023/12/02 06:48:22;;;;;;;19.70;7.90;;;;;;;16.34;31.61;99801.98;105457;1265;64063;-65
2023/12/02 06:50:49;;;;;;;18.20;9.00;;;;;;;16.24;31.66;99799.04;105407;1265;58889;-68
2023/12/02 06:53:16;;;;;;;15.10;6.80;;;;;;;16.24;31.69;99797.64;105334;1265;59541;-65
2023/12/02 06:55:43;;;;;;;15.60;6.40;;;;;;;16.30;31.56;99791.40;105219;1265;62192;-68
2023/12/02 06:58:10;;;;;;;20.50;8.90;;;;;;;16.33;31.41;99784.48;105461;1266;61641;-64
2023/12/02 07:00:37;;;;;;;12.80;6.20;;;;;;;16.39;31.52;99780.02;104544;1267;64014;-66
2023/12/02 07:03:04;;;;;;;18.00;7.90;;;;;;;16.42;31.37;99781.58;105450;1265;59657;-64
2023/12/02 07:05:31;;;;;;;21.20;9.60;;;;;;;16.39;31.40;99781.85;105316;1267;59641;-64
2023/12/02 07:07:59;;;;;;;17.40;8.90;;;;;;;16.37;31.51;99788.68;105380;1266;64132;-65
2023/12/02 07:10:26;;;;;;;17.70;7.20;;;;;;;16.34;31.58;99792.06;105532;1267;61661;-65
2023/12/02 07:12:54;;;;;;;18.70;6.70;;;;;;;16.29;31.44;99794.00;105914;1259;63899;-64
2023/12/02 07:15:22;;;;;;;21.70;8.90;;;;;;;16.22;31.40;99796.84;105705;1260;59653;-65
2023/12/02 07:17:49;;;;;;;16.70;7.30;;;;;;;16.20;31.55;99794.16;105705;1267;59537;-65
2023/12/02 07:20:17;;;;;;;16.20;6.70;;;;;;;16.16;31.57;99798.83;105701;1260;65164;-64
2023/12/02 07:22:43;;;;;;;17.70;9.40;;;;;;;16.11;31.61;99798.18;105580;1260;61507;-63
2023/12/02 07:25:10;;;;;;;13.20;5.70;;;;;;;16.05;31.57;99793.52;106098;1260;64346;-62
2023/12/02 07:27:37;;;;;;;14.00;6.10;;;;;;;16.04;31.78;99785.84;105797;1260;59577;-62
2023/12/02 07:30:05;;;;;;;12.50;5.30;;;;;;;16.01;31.78;99789.36;105706;1260;59815;-61
2023/12/02 07:32:35;;;;;;;16.80;8.20;;;;;;;16.00;31.74;99789.30;105809;1263;64797;-64
2023/12/02 07:35:04;;;;;;;13.00;5.90;;;;;;;15.97;31.69;99791.93;105875;1260;60231;-65
2023/12/02 07:37:32;;;;;;;14.40;6.50;;;;;;;15.92;31.77;99788.50;105791;1261;64471;-64
2023/12/02 07:39:59;;;;;;;10.80;4.40;;;;;;;15.94;31.94;99784.69;105788;1260;59683;-63
2023/12/02 07:42:26;;;;;;;10.60;4.70;;;;;;;15.98;31.89;99779.05;105817;1261;59883;-65
2023/12/02 07:44:53;;;;;;;17.80;5.80;;;;;;;16.06;31.81;99774.15;106051;1264;64425;-63
2023/12/02 07:47:20;;;;;;;12.40;5.90;;;;;;;16.14;31.94;99778.22;105713;1264;60233;-64
2023/12/02 07:49:47;;;;;;;11.10;4.40;;;;;;;16.22;31.78;99783.32;105663;1260;64038;-61
2023/12/02 07:52:14;;;;;;;16.20;8.80;;;;;;;16.31;31.71;99782.98;104561;1261;59828;-59
2023/12/02 07:54:40;;;;;;;13.50;6.30;;;;;;;16.41;31.63;99779.27;108100;1261;59415;-56
2023/12/02 07:57:07;;;;;;;18.90;7.50;;;;;;;16.42;31.64;99780.20;104509;1260;64530;-63
2023/12/02 07:59:34;;;;;;;12.80;7.30;;;;;;;16.37;31.70;99778.92;105619;1262;62423;-56
2023/12/02 08:02:02;;;;;;;13.60;5.40;;;;;;;16.40;31.63;99772.59;107595;1261;63742;-57
2023/12/02 08:04:29;;;;;;;15.10;6.90;;;;;;;16.39;31.51;99771.08;104456;1260;59684;-57
2023/12/02 08:06:56;;;;;;;16.30;7.90;;;;;;;16.30;31.36;99768.41;104978;1261;59679;-57
2023/12/02 08:09:23;;;;;;;17.40;6.60;;;;;;;16.24;31.52;99773.92;105289;1264;64486;-57
2023/12/02 08:11:52;;;;;;;17.80;7.00;;;;;;;16.20;31.62;99771.17;104599;1261;62071;-56
2023/12/02 08:14:19;;;;;;;17.70;7.00;;;;;;;16.20;31.62;99771.56;104685;1263;64607;-57
2023/12/02 08:16:46;;;;;;;18.00;6.90;;;;;;;16.20;31.63;99779.33;108713;1259;58637;-57
2023/12/02 08:19:16;;;;;;;16.60;7.60;;;;;;;16.15;31.69;99785.52;105487;1260;59655;-57
2023/12/02 08:21:43;;;;;;;13.40;7.10;;;;;;;16.06;31.63;99788.34;104910;1256;64528;-58
2023/12/02 08:24:10;;;;;;;21.60;7.60;;;;;;;16.02;31.71;99786.48;105042;1256;60615;-58
2023/12/02 08:26:38;;;;;;;16.60;6.30;;;;;;;15.98;31.98;99785.70;108957;1258;63846;-59
2023/12/02 08:29:04;;;;;;;13.10;5.40;;;;;;;16.02;31.79;99788.80;107753;1256;59678;-58
2023/12/02 08:31:32;;;;;;;12.80;6.00;;;;;;;16.06;31.95;99792.49;108543;1256;59316;-58
2023/12/02 08:33:59;;;;;;;12.20;6.60;;;;;;;16.17;31.86;99792.23;108882;1256;64908;-58
2023/12/02 08:36:25;;;;;;;12.40;5.50;;;;;;;16.29;31.91;99798.48;106411;1256;60204;-58
2023/12/02 08:38:52;;;;;;;17.30;6.60;;;;;;;16.41;31.94;99795.45;108738;1256;73126;-58
2023/12/02 08:41:19;;;;;;;16.70;8.00;;;;;;;16.52;31.71;99788.88;108954;1256;57628;-60
2023/12/02 08:43:46;;;;;;;13.50;6.20;;;;;;;16.57;31.65;99779.23;105695;1260;59610;-55
2023/12/02 08:46:19;;;;;;;20.60;8.70;;;;;;;16.56;31.68;99779.50;105618;1259;64375;-58
2023/12/02 08:48:46;;;;;;;14.30;6.90;;;;;;;16.53;31.55;99782.61;105120;1257;61483;-61
2023/12/02 08:51:14;;;;;;;15.30;6.90;;;;;;;16.52;31.56;99792.51;105401;1259;64350;-56
2023/12/02 08:53:41;;;;;;;14.90;6.90;;;;;;;16.45;31.54;99797.49;105417;1257;59738;-59
2023/12/02 08:56:09;;;;;;;13.50;7.20;;;;;;;16.42;31.57;99791.70;106867;1256;61400;-58
2023/12/02 08:58:36;;;;;;;15.70;6.60;;;;;;;16.37;31.53;99787.81;106172;1256;63090;-59
2023/12/02 09:01:03;;;;;;;16.60;8.10;;;;;;;16.35;31.61;99788.39;105048;1260;60417;-60
2023/12/02 09:03:30;;;;;;;12.90;5.80;;;;;;;16.37;31.67;99796.27;108903;1256;64407;-61
2023/12/02 09:05:57;;;;;;;18.80;6.40;;;;;;;16.35;31.62;99788.16;106069;1256;59264;-61
2023/12/02 09:08:26;;;;;;;18.50;8.40;;;;;;;16.32;31.64;99792.83;105098;1256;59697;-60
2023/12/02 09:10:53;;;;;;;16.50;6.40;;;;;;;16.30;31.63;99794.63;105900;1257;64589;-59
2023/12/02 09:13:40;;;;;;;13.90;7.30;;;;;;;16.28;31.69;99803.86;108140;1258;61477;-58
2023/12/02 09:16:24;;;;;;;19.00;6.30;;;;;;;16.28;31.61;99800.68;106873;1258;63919;-60
2023/12/02 09:18:51;;;;;;;12.50;5.30;;;;;;;16.32;31.60;99794.02;108927;1256;57582;-60
2023/12/02 09:21:20;;;;;;;15.40;7.60;;;;;;;16.36;31.47;99779.92;108933;1257;57496;-58
2023/12/02 09:23:48;;;;;;;19.40;9.50;;;;;;;16.43;31.55;99776.00;108938;1256;62960;-59
2023/12/02 09:26:25;;;;;;;20.20;7.70;;;;;;;16.51;31.52;99787.58;108903;1257;61544;-59
2023/12/02 09:28:52;;;;;;;21.70;8.40;;;;;;;16.53;31.39;99797.61;108823;1257;64078;-58
2023/12/02 09:31:19;;;;;;;17.00;7.30;;;;;;;16.52;31.43;99781.82;108845;1256;59871;-65
2023/12/02 09:33:47;;;;;;;19.30;8.30;;;;;;;16.51;31.33;99778.87;108811;1256;59410;-64
2023/12/02 09:36:37;;;;;;;19.30;9.60;;;;;;;16.50;31.46;99785.11;108826;1256;62854;-67
2023/12/02 09:39:11;;;;;;;18.90;8.30;;;;;;;16.49;31.51;99791.95;105155;1258;62245;-53
2023/12/02 09:41:44;;;;;;;22.00;9.00;;;;;;;16.43;31.49;99783.96;104783;1258;72022;-61
2023/12/02 09:44:34;;;;;;;19.20;9.60;;;;;;;16.39;31.32;99775.60;108873;1256;57625;-59
2023/12/02 09:47:10;;;;;;;23.60;9.70;;;;;;;16.35;31.59;99759.70;107887;1259;60310;-59
2023/12/02 09:49:56;;;;;;;21.50;9.70;;;;;;;16.31;31.57;99745.65;105451;1256;64343;-60
2023/12/02 09:52:29;;;;;;;18.50;9.80;;;;;;;16.28;31.65;99747.58;108893;1257;61468;-60
2023/12/02 09:55:14;;;;;;;23.70;10.30;;;;;;;16.26;31.58;99750.29;108887;1257;64085;-61
2023/12/02 09:57:48;;;;;;;25.20;9.80;;;;;;;16.28;31.59;99739.13;108965;1259;61526;-61
2023/12/02 10:00:56;;;;;;;15.40;7.20;;;;;;;16.32;31.57;99732.83;108952;1257;57583;-60
2023/12/02 10:03:35;;;;;;;17.80;7.40;;;;;;;16.34;31.62;99714.40;108987;1256;63014;-54
2023/12/02 10:06:05;;;;;;;20.60;8.00;;;;;;;16.39;31.68;99709.05;108983;1256;61549;-55
2023/12/02 10:08:40;;;;;;;14.50;6.60;;;;;;;16.41;31.63;99722.04;107139;1260;64082;-52
2023/12/02 10:11:07;;;;;;;16.70;9.20;;;;;;;16.38;31.55;99737.84;105058;1258;59757;-61
2023/12/02 10:13:44;;;;;;;22.40;11.10;;;;;;;16.37;31.59;99732.41;105378;1257;59682;-61
2023/12/02 10:16:18;;;;;;;17.90;8.20;;;;;;;16.33;31.65;99725.19;105146;1260;64244;-59
2023/12/02 10:18:52;;;;;;;15.70;7.10;;;;;;;16.29;31.67;99732.22;105143;1256;62876;-59
2023/12/02 10:21:20;;;;;;;19.60;7.00;;;;;;;16.21;31.60;99728.41;105237;1256;64222;-60
2023/12/02 10:24:02;;;;;;;18.60;7.10;;;;;;;16.11;31.78;99718.68;105266;1258;59807;-60
2023/12/02 10:26:39;;;;;;;18.90;9.70;;;;;;;16.03;31.74;99731.67;105629;1256;59643;-60
2023/12/02 10:29:18;;;;;;;18.00;7.10;;;;;;;15.97;31.74;99727.94;105083;1259;64218;-59
2023/12/02 10:31:54;;;;;;;12.30;6.10;;;;;;;15.95;31.88;99716.33;106460;1254;75230;-82
2023/12/02 10:34:35;;;;;;;17.50;6.30;;;;;;;16.02;31.85;99709.32;108183;1254;63759;-80
2023/12/02 10:37:05;;;;;;;12.30;5.60;;;;;;;16.11;31.83;99717.66;107747;1256;60815;-81
2023/12/02 10:39:42;;;;;;;14.60;6.20;;;;;;;16.18;31.89;99722.89;107612;1255;60452;-81
2023/12/02 10:42:26;;;;;;;13.50;6.50;;;;;;;16.25;31.82;99737.19;109036;1257;64474;-81
2023/12/02 10:45:07;;;;;;;16.90;7.10;;;;;;;16.25;31.82;99744.55;108931;1257;60755;-81
2023/12/02 10:47:33;;;;;;;16.90;7.60;;;;;;;16.22;31.89;99744.23;108702;1257;63814;-81
2023/12/02 10:50:00;;;;;;;13.90;7.90;;;;;;;16.24;31.95;99741.52;108586;1258;58135;-80
2023/12/02 10:52:30;;;;;;;14.90;7.30;;;;;;;16.24;31.90;99723.13;108960;1257;58124;-80
2023/12/02 10:55:02;;;;;;;15.50;7.20;;;;;;;16.19;31.81;99711.61;108887;1257;65001;-81
2023/12/02 10:57:30;;;;;;;14.10;6.90;;;;;;;16.15;31.84;99706.92;108893;1257;61754;-82
2023/12/02 11:00:11;;;;;;;13.20;6.40;;;;;;;16.14;31.83;99707.06;108661;1257;63854;-82
2023/12/02 11:02:38;;;;;;;15.90;6.60;;;;;;;16.09;31.92;99712.36;107614;1257;59292;-82
2023/12/02 11:05:21;;;;;;;10.20;4.00;;;;;;;16.05;31.97;99722.96;106984;1259;60430;-85
2023/12/02 11:07:54;;;;;;;13.70;5.50;;;;;;;16.09;31.86;99724.55;105580;1257;63938;-83
2023/12/02 11:10:46;;;;;;;11.60;4.70;;;;;;;16.19;31.98;99727.41;109195;1257;60540;-83
2023/12/02 11:13:19;;;;;;;10.70;4.00;;;;;;;16.32;31.92;99723.41;108824;1257;62926;-84
2023/12/02 11:16:08;;;;;;;11.60;5.20;;;;;;;16.45;32.07;99713.75;108814;1257;59250;-83
2023/12/02 11:19:02;;;;;;;13.60;5.00;;;;;;;16.54;31.88;99714.05;105670;1257;60408;-85
2023/12/02 11:21:37;;;;;;;19.30;7.00;;;;;;;16.51;31.91;99726.48;105506;1259;65233;-85
2023/12/02 11:24:14;;;;;;;16.20;6.20;;;;;;;16.49;32.02;99735.26;105731;1260;60567;-84
2023/12/02 11:26:44;;;;;;;14.60;6.90;;;;;;;16.48;31.88;99736.59;105848;1259;64030;-83
2023/12/02 11:29:17;;;;;;;13.60;6.00;;;;;;;16.45;32.00;99730.95;105754;1260;60549;-83
2023/12/02 11:32:07;;;;;;;14.10;6.60;;;;;;;16.43;31.88;99735.57;105749;1259;60520;-86
2023/12/02 11:35:14;;;;;;;14.00;6.30;;;;;;;16.39;31.95;99735.36;105740;1261;65231;-82
2023/12/02 11:37:58;;;;;;;13.00;7.00;;;;;;;16.28;31.98;99727.78;105723;1258;61763;-82